Time;durP1;ratioP1;P1;durP2;ratioP2;P2;SDS_P1;SDS_P2;PMS_P1;PMS_P2;Temp;Humidity;BMP_temperature;BMP_pressure;BME280_temperature;BME280_humidity;BME280_pressure;Samples;Min_cycle;Max_cycle;Signal;HPM_P1;HPM_P2
2023/03/17 00:00:01;;;;;;;18.40;3.78;;;14.20;47.40;;;;;;6222388;28;20038;-72
2023/03/17 00:03:24;;;;;;;17.65;4.13;;;14.20;47.70;;;;;;6223382;28;20037;-75
2023/03/17 00:06:28;;;;;;;11.23;3.30;;;14.20;47.70;;;;;;6218459;28;20061;-73
2023/03/17 00:09:29;;;;;;;11.35;3.53;;;14.20;47.70;;;;;;6203972;28;20049;-74
2023/03/17 00:12:34;;;;;;;8.43;4.28;;;14.20;47.80;;;;;;6203844;28;20117;-72
2023/03/17 00:15:35;;;;;;;8.70;3.25;;;14.20;47.90;;;;;;6220263;28;20041;-73
2023/03/17 00:18:37;;;;;;;10.38;3.38;;;14.20;48.00;;;;;;6221261;28;20029;-75
2023/03/17 00:21:40;;;;;;;11.10;3.30;;;14.20;48.00;;;;;;6220175;28;20407;-75
2023/03/17 00:24:42;;;;;;;18.52;3.67;;;14.20;48.00;;;;;;6220251;28;20037;-73
2023/03/17 00:27:43;;;;;;;7.78;3.08;;;14.20;48.10;;;;;;6221760;28;20640;-75
2023/03/17 00:30:45;;;;;;;20.30;4.68;;;14.20;48.10;;;;;;6219846;28;20037;-74
2023/03/17 00:33:47;;;;;;;14.85;3.20;;;14.20;48.20;;;;;;6221408;28;20423;-74
2023/03/17 00:36:50;;;;;;;5.03;2.25;;;14.20;48.10;;;;;;6220078;28;20030;-74
2023/03/17 00:39:51;;;;;;;7.85;2.88;;;14.20;48.20;;;;;;6220062;28;20040;-74
2023/03/17 00:42:53;;;;;;;8.43;2.38;;;14.10;48.30;;;;;;6219846;28;20021;-76
2023/03/17 00:45:54;;;;;;;5.93;2.88;;;14.10;48.30;;;;;;6221176;28;20084;-73
2023/03/17 00:48:55;;;;;;;6.25;2.30;;;14.10;48.20;;;;;;6219563;28;20137;-74
2023/03/17 00:51:56;;;;;;;5.05;2.08;;;14.00;48.20;;;;;;6219641;28;20112;-75
2023/03/17 00:55:01;;;;;;;5.00;1.80;;;14.00;48.20;;;;;;6219910;28;20056;-75
2023/03/17 00:58:29;;;;;;;6.95;1.95;;;13.80;48.10;;;;;;6221467;28;20474;-74
2023/03/17 01:01:30;;;;;;;3.00;1.65;;;13.80;48.20;;;;;;6218477;28;20046;-75
2023/03/17 01:04:34;;;;;;;9.55;2.63;;;13.70;48.10;;;;;;6219545;28;20037;-74
2023/03/17 01:07:36;;;;;;;5.43;2.22;;;13.70;48.30;;;;;;6220156;28;20026;-73
2023/03/17 01:10:37;;;;;;;4.95;1.90;;;13.60;48.30;;;;;;6225899;28;20343;-73
2023/03/17 01:13:39;;;;;;;12.95;2.58;;;13.60;48.40;;;;;;6203513;28;20033;-75
2023/03/17 01:16:40;;;;;;;10.32;2.67;;;13.60;48.50;;;;;;6203367;28;20160;-75
2023/03/17 01:19:42;;;;;;;6.78;1.90;;;13.50;48.70;;;;;;6220500;28;20137;-74
2023/03/17 01:22:43;;;;;;;2.40;1.40;;;13.50;48.70;;;;;;6202678;28;20109;-74
2023/03/17 01:25:44;;;;;;;6.15;2.00;;;13.40;48.60;;;;;;6218982;28;20574;-76
2023/03/17 01:28:45;;;;;;;3.35;1.55;;;13.40;48.80;;;;;;6218945;28;20026;-75
2023/03/17 01:31:47;;;;;;;7.40;1.88;;;13.30;49.40;;;;;;6218877;28;20060;-75
2023/03/17 01:34:48;;;;;;;6.05;2.30;;;13.30;48.80;;;;;;6219584;28;20034;-75
2023/03/17 01:37:51;;;;;;;8.90;2.85;;;13.30;49.10;;;;;;6219501;28;20030;-72
2023/03/17 01:40:53;;;;;;;10.57;3.35;;;13.30;49.30;;;;;;6219912;28;20397;-73
2023/03/17 01:43:59;;;;;;;9.23;2.70;;;13.30;49.50;;;;;;6219675;28;20497;-74
2023/03/17 01:47:09;;;;;;;4.60;2.70;;;13.30;49.60;;;;;;6206801;28;20034;-73
2023/03/17 01:50:11;;;;;;;8.02;2.40;;;13.30;49.60;;;;;;6203343;28;20574;-74
2023/03/17 01:53:12;;;;;;;5.95;2.25;;;13.30;49.60;;;;;;6218008;28;20446;-74
2023/03/17 01:56:15;;;;;;;9.55;2.33;;;13.40;49.70;;;;;;6219392;28;20022;-73
2023/03/17 01:59:22;;;;;;;3.67;2.10;;;13.30;49.70;;;;;;6218242;28;20394;-75
2023/03/17 02:02:29;;;;;;;7.60;1.80;;;13.30;49.80;;;;;;6219453;28;20048;-74
2023/03/17 02:05:32;;;;;;;7.65;1.63;;;13.20;49.80;;;;;;6201955;28;20033;-73
2023/03/17 02:08:33;;;;;;;3.10;1.85;;;13.30;49.90;;;;;;6219584;28;20505;-74
2023/03/17 02:11:36;;;;;;;8.63;1.77;;;13.30;49.90;;;;;;6194597;28;20065;-73
2023/03/17 02:14:38;;;;;;;5.93;2.58;;;13.30;50.00;;;;;;6161477;28;20038;-73
2023/03/17 02:17:39;;;;;;;6.35;3.33;;;13.30;49.90;;;;;;6194493;28;20023;-74
2023/03/17 02:20:45;;;;;;;9.05;3.63;;;13.30;49.90;;;;;;6197856;28;20085;-73
2023/03/17 02:23:46;;;;;;;13.80;3.22;;;13.20;50.00;;;;;;6201971;28;20042;-76
2023/03/17 02:26:50;;;;;;;9.63;2.53;;;13.20;50.20;;;;;;6195219;28;20038;-73
2023/03/17 02:29:51;;;;;;;9.05;3.10;;;13.20;50.30;;;;;;6199511;28;20094;-76
2023/03/17 02:32:52;;;;;;;9.38;2.45;;;13.20;50.50;;;;;;6219879;28;20030;-74
2023/03/17 02:35:56;;;;;;;4.18;1.55;;;13.10;50.50;;;;;;6220111;28;20025;-74
2023/03/17 02:38:57;;;;;;;6.65;1.50;;;13.10;50.60;;;;;;6217606;28;20045;-73
2023/03/17 02:41:59;;;;;;;4.25;1.88;;;13.10;50.70;;;;;;6219414;28;20051;-74
2023/03/17 02:45:01;;;;;;;11.32;1.48;;;13.00;50.80;;;;;;6201962;28;20053;-73
2023/03/17 02:48:02;;;;;;;9.48;1.63;;;13.00;50.90;;;;;;6217522;28;20030;-74
2023/03/17 02:51:04;;;;;;;6.68;1.05;;;13.00;50.90;;;;;;6218628;28;20043;-74
2023/03/17 02:54:06;;;;;;;4.90;1.10;;;13.00;50.90;;;;;;6216977;28;20054;-76
2023/03/17 02:57:07;;;;;;;5.05;1.35;;;13.10;50.90;;;;;;6217375;28;20057;-76
2023/03/17 03:00:10;;;;;;;5.35;1.20;;;13.10;50.80;;;;;;6216958;28;20513;-74
2023/03/17 03:03:11;;;;;;;2.92;1.52;;;13.10;50.70;;;;;;6218143;28;20434;-74
2023/03/17 03:06:13;;;;;;;3.35;1.77;;;13.10;50.60;;;;;;6217044;28;20085;-73
2023/03/17 03:09:16;;;;;;;7.13;2.00;;;13.20;50.60;;;;;;6217289;28;20557;-73
2023/03/17 03:12:17;;;;;;;5.38;2.35;;;13.20;50.50;;;;;;6217001;28;20064;-74
2023/03/17 03:15:19;;;;;;;10.32;2.15;;;13.20;50.40;;;;;;6216935;28;20418;-74
2023/03/17 03:18:20;;;;;;;8.32;2.92;;;13.20;50.30;;;;;;6216869;28;20097;-74
2023/03/17 03:21:22;;;;;;;5.05;2.38;;;13.20;50.30;;;;;;6206098;28;20040;-73
2023/03/17 03:24:23;;;;;;;5.07;2.65;;;13.20;50.30;;;;;;6206040;28;20323;-75
2023/03/17 03:27:24;;;;;;;8.95;3.25;;;13.10;50.20;;;;;;6221850;28;20034;-75
2023/03/17 03:30:25;;;;;;;5.10;2.75;;;13.10;50.20;;;;;;6226418;28;20030;-74
2023/03/17 03:33:27;;;;;;;11.07;1.70;;;13.10;50.20;;;;;;6226980;28;20416;-74
2023/03/17 03:36:28;;;;;;;6.70;1.27;;;13.10;50.20;;;;;;6223216;28;20065;-75
2023/03/17 03:39:29;;;;;;;5.35;1.73;;;13.10;50.40;;;;;;6221410;28;20037;-74
2023/03/17 03:42:30;;;;;;;4.97;1.17;;;13.10;50.50;;;;;;6222945;28;20342;-73
2023/03/17 03:45:32;;;;;;;6.28;1.48;;;13.10;50.80;;;;;;6221173;28;20041;-74
2023/03/17 03:48:33;;;;;;;5.03;1.25;;;13.10;50.90;;;;;;6204781;28;20437;-74
2023/03/17 03:51:35;;;;;;;6.63;1.13;;;13.10;51.00;;;;;;6221273;28;20116;-73
2023/03/17 03:54:36;;;;;;;7.63;1.30;;;13.10;50.90;;;;;;6221656;28;20034;-73
2023/03/17 03:57:37;;;;;;;7.90;1.45;;;13.10;50.90;;;;;;6223307;28;20037;-74
2023/03/17 04:00:39;;;;;;;2.38;1.00;;;13.10;51.00;;;;;;6210780;28;20163;-73
2023/03/17 04:03:40;;;;;;;4.20;1.00;;;13.00;50.90;;;;;;6203142;28;20633;-74
2023/03/17 04:06:41;;;;;;;2.28;0.90;;;13.00;51.50;;;;;;6197420;28;20088;-75
2023/03/17 04:09:42;;;;;;;1.88;0.82;;;13.00;50.90;;;;;;6179864;28;20026;-75
2023/03/17 04:12:45;;;;;;;6.85;1.30;;;13.10;51.00;;;;;;6201382;28;20063;-74
2023/03/17 04:15:46;;;;;;;5.13;1.55;;;13.00;51.00;;;;;;6221882;28;20105;-75
2023/03/17 04:18:47;;;;;;;4.07;0.90;;;13.20;51.10;;;;;;6221767;28;20048;-75
2023/03/17 04:21:49;;;;;;;4.72;0.80;;;13.00;51.10;;;;;;6219728;28;20047;-74
2023/03/17 04:24:51;;;;;;;4.30;1.02;;;13.00;51.10;;;;;;6219820;28;20435;-71
2023/03/17 04:27:56;;;;;;;2.75;0.93;;;13.00;51.10;;;;;;6221028;28;20034;-73
2023/03/17 04:44:11;;;;;;;2.03;0.93;;;12.90;51.10;;;;;;6196819;28;19913;-71
2023/03/17 04:51:35;;;;;;;8.38;1.42;;;12.80;51.10;;;;;;6220436;28;20108;-73
2023/03/17 04:54:36;;;;;;;9.15;1.10;;;12.80;51.10;;;;;;6219383;28;20045;-72
2023/03/17 04:57:38;;;;;;;2.85;1.13;;;12.80;51.10;;;;;;6219501;28;20030;-72
2023/03/17 05:00:39;;;;;;;6.68;1.38;;;12.80;51.10;;;;;;6219799;28;20473;-71
2023/03/17 05:08:03;;;;;;;7.07;1.15;;;12.90;50.90;;;;;;6232797;28;20089;-72
2023/03/17 05:11:05;;;;;;;6.78;1.35;;;12.90;50.90;;;;;;6225330;28;20084;-72
2023/03/17 05:14:06;;;;;;;2.50;1.65;;;12.80;50.80;;;;;;6219598;28;20033;-72
2023/03/17 05:17:07;;;;;;;3.70;2.20;;;12.80;50.70;;;;;;6219430;28;20029;-70
2023/03/17 05:20:09;;;;;;;7.20;2.00;;;12.90;50.60;;;;;;6219659;28;20063;-72
2023/03/17 05:23:11;;;;;;;5.10;2.03;;;12.80;50.40;;;;;;6202577;28;20068;-73
2023/03/17 05:26:12;;;;;;;4.82;2.08;;;12.80;50.30;;;;;;6220514;28;20037;-72
2023/03/17 05:29:13;;;;;;;5.13;1.85;;;12.80;50.10;;;;;;6202237;28;20423;-72
2023/03/17 05:32:22;;;;;;;15.70;2.22;;;12.80;50.00;;;;;;6202027;28;20034;-72
2023/03/17 05:39:51;;;;;;;7.40;2.00;;;12.70;50.00;;;;;;6219751;28;20034;-73
2023/03/17 05:42:52;;;;;;;6.43;1.95;;;12.70;50.00;;;;;;6218972;28;20430;-73
2023/03/17 05:45:53;;;;;;;4.22;2.35;;;12.70;50.00;;;;;;6217956;28;20037;-73
2023/03/17 05:48:54;;;;;;;9.38;2.55;;;12.60;50.00;;;;;;6219059;28;20030;-73
2023/03/17 05:51:56;;;;;;;11.45;2.15;;;12.70;50.00;;;;;;6201425;28;20061;-73
2023/03/17 05:54:59;;;;;;;7.18;2.15;;;12.60;50.00;;;;;;6201655;28;20065;-75
2023/03/17 05:58:03;;;;;;;5.00;2.17;;;12.60;50.00;;;;;;6218300;28;20026;-71
2023/03/17 06:01:04;;;;;;;5.75;2.10;;;12.60;50.10;;;;;;6201954;28;20099;-73
2023/03/17 06:04:06;;;;;;;3.10;1.42;;;12.60;50.10;;;;;;6202205;28;20034;-72
2023/03/17 06:07:09;;;;;;;4.70;1.73;;;12.60;50.20;;;;;;6217680;28;20132;-73
2023/03/17 06:10:11;;;;;;;3.35;1.30;;;12.70;50.20;;;;;;6204317;28;20041;-72
2023/03/17 06:13:12;;;;;;;6.55;1.45;;;12.70;50.20;;;;;;6194385;28;20034;-73
2023/03/17 06:16:16;;;;;;;3.10;1.48;;;12.70;50.30;;;;;;6195720;28;20473;-72
2023/03/17 06:19:17;;;;;;;8.27;1.30;;;12.70;50.30;;;;;;6199753;28;20348;-72
2023/03/17 06:22:18;;;;;;;4.40;1.40;;;12.70;50.20;;;;;;6193821;28;20398;-73
2023/03/17 06:25:19;;;;;;;3.95;1.33;;;12.70;50.20;;;;;;6193643;28;20467;-71
2023/03/17 06:28:21;;;;;;;4.43;1.33;;;12.70;50.30;;;;;;6177095;28;20041;-73
2023/03/17 06:31:22;;;;;;;6.40;1.60;;;12.70;50.40;;;;;;6194661;28;20104;-71
2023/03/17 06:34:24;;;;;;;7.75;1.80;;;12.70;50.50;;;;;;6192700;28;20100;-71
2023/03/17 06:37:25;;;;;;;10.60;1.58;;;12.70;50.40;;;;;;6199968;28;20034;-73
2023/03/17 06:40:26;;;;;;;7.20;1.83;;;12.70;50.40;;;;;;6202491;28;20034;-72
2023/03/17 06:43:27;;;;;;;7.15;2.45;;;12.70;50.30;;;;;;6202254;28;20025;-70
2023/03/17 06:46:28;;;;;;;3.60;2.13;;;12.80;50.30;;;;;;6218633;28;20092;-71
2023/03/17 06:49:30;;;;;;;5.15;1.90;;;12.70;50.30;;;;;;6218819;28;20103;-72
2023/03/17 06:52:31;;;;;;;13.00;2.50;;;12.70;50.30;;;;;;6219205;28;20030;-67
2023/03/17 06:55:32;;;;;;;4.82;1.65;;;12.60;50.40;;;;;;6219277;28;20123;-71
2023/03/17 06:58:33;;;;;;;6.05;2.05;;;12.60;50.40;;;;;;6218309;28;20021;-70
2023/03/17 07:01:34;;;;;;;10.73;2.08;;;12.60;50.50;;;;;;6222761;28;20026;-71
2023/03/17 07:04:37;;;;;;;6.15;1.67;;;12.60;50.40;;;;;;6204979;28;20061;-74
2023/03/17 07:07:38;;;;;;;4.60;1.70;;;12.70;50.40;;;;;;6221221;28;20029;-70
2023/03/17 07:10:42;;;;;;;6.03;1.27;;;12.70;50.30;;;;;;6219958;28;20421;-71
2023/03/17 07:13:44;;;;;;;7.38;1.42;;;12.80;50.10;;;;;;6196949;28;20026;-72
2023/03/17 07:16:47;;;;;;;8.85;1.35;;;12.90;49.80;;;;;;6180906;28;20030;-71
2023/03/17 07:19:48;;;;;;;11.13;1.77;;;12.90;49.70;;;;;;6216398;28;20038;-70
2023/03/17 07:22:50;;;;;;;3.85;1.10;;;13.00;49.60;;;;;;6222996;28;20049;-72
2023/03/17 07:25:51;;;;;;;5.60;1.25;;;13.10;49.40;;;;;;6221524;28;20042;-72
2023/03/17 07:28:52;;;;;;;18.08;2.38;;;13.10;49.20;;;;;;6221190;28;20030;-73
2023/03/17 07:31:54;;;;;;;7.63;2.08;;;13.20;49.20;;;;;;6222823;28;20034;-71
2023/03/17 07:34:57;;;;;;;6.07;2.58;;;13.20;49.10;;;;;;6222150;28;20363;-70
2023/03/17 07:37:58;;;;;;;15.60;2.65;;;13.20;49.10;;;;;;6220924;28;20084;-71
2023/03/17 07:41:00;;;;;;;11.20;2.70;;;13.30;49.20;;;;;;6221341;28;20041;-71
2023/03/17 07:44:02;;;;;;;6.18;3.00;;;13.40;49.20;;;;;;6224284;28;20030;-69
2023/03/17 07:47:05;;;;;;;6.40;2.60;;;13.40;49.10;;;;;;6225530;28;20030;-70
2023/03/17 07:50:07;;;;;;;11.02;2.40;;;13.30;49.20;;;;;;6234650;28;20065;-72
2023/03/17 07:53:08;;;;;;;10.88;2.95;;;13.30;49.30;;;;;;6221657;28;20109;-71
2023/03/17 07:56:09;;;;;;;8.02;2.92;;;13.40;49.30;;;;;;6222058;28;20049;-72
2023/03/17 07:59:11;;;;;;;4.25;1.92;;;13.30;50.00;;;;;;6221663;28;20026;-69
2023/03/17 08:02:16;;;;;;;7.15;2.55;;;13.40;49.40;;;;;;6204068;28;20105;-71
2023/03/17 08:05:19;;;;;;;8.35;2.78;;;13.40;49.40;;;;;;6221939;28;20041;-71
2023/03/17 08:08:22;;;;;;;10.05;3.17;;;13.50;49.40;;;;;;6207402;28;20033;-70
2023/03/17 08:11:23;;;;;;;9.48;2.58;;;13.60;49.20;;;;;;6219863;28;20026;-73
2023/03/17 08:14:24;;;;;;;10.55;2.35;;;13.80;49.00;;;;;;6203834;28;20141;-71
2023/03/17 08:17:26;;;;;;;11.23;3.00;;;13.90;48.60;;;;;;6222064;28;20110;-70
2023/03/17 08:20:28;;;;;;;6.78;2.55;;;14.00;48.50;;;;;;6222461;28;20049;-72
2023/03/17 08:23:29;;;;;;;7.25;2.70;;;14.10;48.30;;;;;;6227078;28;20775;-71
2023/03/17 08:26:31;;;;;;;3.70;2.20;;;14.10;48.20;;;;;;6225721;28;20026;-73
2023/03/17 08:29:33;;;;;;;7.90;2.97;;;14.20;48.10;;;;;;6220647;28;20025;-71
2023/03/17 08:32:35;;;;;;;8.52;2.55;;;14.20;48.00;;;;;;6219935;28;20049;-72
2023/03/17 08:35:39;;;;;;;4.70;2.03;;;14.20;48.00;;;;;;6203591;28;20420;-71
2023/03/17 08:38:43;;;;;;;2.40;1.35;;;14.30;47.90;;;;;;6221329;28;20018;-72
2023/03/17 08:41:45;;;;;;;10.45;1.73;;;14.30;47.50;;;;;;6221342;28;20441;-71
2023/03/17 08:44:46;;;;;;;4.95;1.35;;;14.40;47.20;;;;;;6203405;28;20045;-70
2023/03/17 08:47:51;;;;;;;2.03;1.08;;;14.50;46.90;;;;;;6219422;28;20038;-70
2023/03/17 08:51:00;;;;;;;7.03;1.20;;;14.70;46.70;;;;;;6219170;28;20048;-71
2023/03/17 08:54:02;;;;;;;10.57;1.80;;;14.80;46.30;;;;;;6219715;28;20052;-71
2023/03/17 08:57:05;;;;;;;5.03;1.58;;;15.00;46.00;;;;;;6217942;28;20029;-72
2023/03/17 09:00:09;;;;;;;5.53;1.00;;;15.20;45.50;;;;;;6218176;28;20505;-72
2023/03/17 09:03:10;;;;;;;13.15;1.50;;;15.40;44.80;;;;;;6218292;28;20371;-72
2023/03/17 09:06:13;;;;;;;11.57;1.38;;;15.50;44.40;;;;;;6218799;28;20061;-73
2023/03/17 09:09:15;;;;;;;7.38;1.30;;;15.70;43.80;;;;;;6219510;28;20033;-71
2023/03/17 09:12:16;;;;;;;2.60;1.10;;;15.90;43.60;;;;;;6218054;28;20081;-71
2023/03/17 09:15:17;;;;;;;6.22;1.33;;;16.00;43.10;;;;;;6219454;28;20064;-72
2023/03/17 09:18:19;;;;;;;3.20;1.08;;;16.20;42.70;;;;;;6201245;28;20105;-72
2023/03/17 09:21:21;;;;;;;5.55;1.05;;;16.30;42.90;;;;;;6219213;28;20461;-71
2023/03/17 09:24:22;;;;;;;4.22;1.10;;;16.40;42.30;;;;;;6201290;28;20491;-71
2023/03/17 09:27:23;;;;;;;6.25;1.40;;;16.60;41.80;;;;;;6217266;28;20056;-73
2023/03/17 09:30:26;;;;;;;3.30;0.90;;;16.80;41.40;;;;;;6219663;28;20402;-71
2023/03/17 09:33:27;;;;;;;4.70;1.20;;;16.90;41.00;;;;;;6220742;28;20451;-71
2023/03/17 09:36:31;;;;;;;8.13;1.42;;;17.10;40.70;;;;;;6205453;28;20069;-72
2023/03/17 09:39:33;;;;;;;8.30;1.27;;;17.30;40.30;;;;;;6201590;28;20045;-73
2023/03/17 09:42:57;;;;;;;6.20;1.70;;;17.40;39.60;;;;;;6220216;28;20105;-72
2023/03/17 09:46:27;;;;;;;1.52;0.60;;;17.60;39.10;;;;;;6202115;28;20026;-72
2023/03/17 09:49:41;;;;;;;6.72;1.15;;;17.70;38.90;;;;;;6219764;28;20022;-72
2023/03/17 09:52:42;;;;;;;1.80;0.93;;;17.80;38.00;;;;;;6220919;28;20112;-71
2023/03/17 09:55:47;;;;;;;4.80;1.55;;;17.90;37.70;;;;;;6218991;28;20044;-73
2023/03/17 09:59:12;;;;;;;5.95;1.08;;;18.00;37.30;;;;;;6217807;28;20045;-72
2023/03/17 10:02:25;;;;;;;2.42;0.90;;;18.20;36.90;;;;;;6143601;29;20043;-72
2023/03/17 10:05:30;;;;;;;7.40;1.02;;;18.30;36.40;;;;;;6143127;29;20593;-72
2023/03/17 10:08:36;;;;;;;6.35;1.15;;;18.50;35.80;;;;;;6142839;29;20035;-73
2023/03/17 10:11:46;;;;;;;18.05;1.15;;;18.70;35.40;;;;;;6119175;29;20130;-74
2023/03/17 10:14:58;;;;;;;6.85;1.65;;;18.70;35.30;;;;;;6119305;29;20111;-71
2023/03/17 10:18:01;;;;;;;10.02;1.40;;;18.80;34.80;;;;;;6122549;29;20364;-73
2023/03/17 10:21:05;;;;;;;5.00;1.00;;;18.90;33.90;;;;;;6127512;29;20054;-74
2023/03/17 10:24:10;;;;;;;7.00;1.02;;;19.00;32.90;;;;;;6143932;29;20043;-73
2023/03/17 10:27:14;;;;;;;7.00;1.02;;;19.10;32.80;;;;;;6147096;29;20039;-71
2023/03/17 10:30:21;;;;;;;7.85;0.82;;;19.30;32.70;;;;;;6153702;29;20047;-71
2023/03/17 10:33:22;;;;;;;8.60;1.23;;;19.40;32.10;;;;;;6133158;29;20050;-72
2023/03/17 10:36:38;;;;;;;5.55;1.10;;;19.50;31.00;;;;;;6144700;29;20130;-71
2023/03/17 10:39:58;;;;;;;1.13;0.63;;;19.70;30.70;;;;;;6196235;28;20057;-73
2023/03/17 10:43:06;;;;;;;6.88;1.10;;;20.10;30.00;;;;;;6218204;28;20501;-74
2023/03/17 10:46:18;;;;;;;3.53;1.00;;;20.50;29.70;;;;;;6200716;28;20512;-71
2023/03/17 10:49:21;;;;;;;2.83;0.65;;;20.90;29.20;;;;;;6216418;28;20582;-72
2023/03/17 10:52:27;;;;;;;4.55;1.23;;;21.30;29.00;;;;;;6216453;28;20060;-72
2023/03/17 10:55:47;;;;;;;3.00;0.85;;;21.70;28.60;;;;;;6215351;28;20045;-71
2023/03/17 10:58:50;;;;;;;1.98;0.93;;;21.90;28.20;;;;;;6175626;28;20038;-72
2023/03/17 11:01:56;;;;;;;3.00;0.93;;;22.20;28.10;;;;;;6193281;28;20038;-70
2023/03/17 11:05:26;;;;;;;1.02;0.60;;;22.50;27.70;;;;;;6193480;28;20518;-71
2023/03/17 11:08:55;;;;;;;1.30;0.70;;;22.70;27.00;;;;;;6191925;28;20073;-75
2023/03/17 11:12:00;;;;;;;;;;;22.90;27.00;;;;;;6119053;29;20522;-72
2023/03/17 11:15:06;;;;;;;9.23;0.80;;;23.10;26.50;;;;;;6119005;29;19921;-73
2023/03/17 11:18:21;;;;;;;7.70;0.90;;;23.30;26.50;;;;;;6117629;29;20079;-73
2023/03/17 11:21:58;;;;;;;5.55;1.35;;;23.30;26.50;;;;;;6118418;29;20043;-74
2023/03/17 11:25:11;;;;;;;4.38;0.75;;;23.40;25.60;;;;;;6118007;29;20528;-72
2023/03/17 11:28:19;;;;;;;10.65;1.70;;;23.60;25.60;;;;;;6118338;29;20047;-73
2023/03/17 11:31:29;;;;;;;6.97;1.00;;;23.70;25.20;;;;;;6118505;29;20464;-71
2023/03/17 11:34:45;;;;;;;8.07;1.10;;;23.80;24.80;;;;;;6118844;29;20050;-71
2023/03/17 11:38:07;;;;;;;1.05;0.40;;;24.00;24.20;;;;;;6118599;29;20110;-73
2023/03/17 11:41:21;;;;;;;2.05;0.90;;;24.10;23.80;;;;;;6117883;29;20072;-73
2023/03/17 11:44:46;;;;;;;2.90;1.42;;;24.50;23.80;;;;;;6119674;29;20067;-75
2023/03/17 11:48:01;;;;;;;4.00;0.70;;;24.70;23.30;;;;;;6145333;28;20125;-73
2023/03/17 11:51:21;;;;;;;12.10;1.40;;;24.90;23.50;;;;;;6219904;28;20060;-73
2023/03/17 11:54:47;;;;;;;3.55;1.00;;;25.30;23.30;;;;;;6198701;28;20030;-73
2023/03/17 11:58:34;;;;;;;2.70;0.70;;;25.70;22.40;;;;;;6196659;28;20026;-70
2023/03/17 12:02:00;;;;;;;3.80;1.17;;;25.90;22.20;;;;;;6187558;28;20154;-70
2023/03/17 12:05:23;;;;;;;6.88;1.38;;;26.30;21.90;;;;;;6195495;28;20058;-71
2023/03/17 12:08:56;;;;;;;3.35;0.90;;;26.60;21.70;;;;;;6211163;28;20078;-70
2023/03/17 12:12:00;;;;;;;3.75;1.02;;;26.80;21.60;;;;;;6196428;28;20344;-71
2023/03/17 12:15:04;;;;;;;3.92;0.85;;;27.20;21.40;;;;;;6202840;28;20392;-73
2023/03/17 12:18:17;;;;;;;2.67;0.82;;;27.30;20.80;;;;;;6218637;28;20028;-72
2023/03/17 12:21:49;;;;;;;3.80;1.17;;;27.30;20.60;;;;;;6203016;28;20521;-72
2023/03/17 12:25:08;;;;;;;3.33;1.40;;;27.30;20.80;;;;;;6219133;28;20631;-71
2023/03/17 12:28:15;;;;;;;4.68;1.25;;;27.30;20.60;;;;;;6220023;28;20037;-73
2023/03/17 12:31:29;;;;;;;2.17;1.15;;;27.30;20.90;;;;;;6218725;28;20037;-72
2023/03/17 12:34:37;;;;;;;2.92;1.20;;;27.50;20.90;;;;;;6220088;28;20038;-73
2023/03/17 12:37:40;;;;;;;4.22;1.75;;;27.60;20.50;;;;;;6219708;28;20490;-73
2023/03/17 12:40:50;;;;;;;2.65;1.20;;;27.50;20.70;;;;;;6218139;28;20114;-71
2023/03/17 12:43:54;;;;;;;4.75;1.27;;;27.80;20.70;;;;;;6219778;28;20117;-73
2023/03/17 12:47:26;;;;;;;1.83;1.10;;;28.00;20.20;;;;;;6219419;28;20025;-71
2023/03/17 12:50:48;;;;;;;5.72;1.20;;;27.70;20.30;;;;;;6219230;28;20117;-71
2023/03/17 12:53:50;;;;;;;5.30;1.13;;;27.10;20.70;;;;;;6219511;28;20860;-72
2023/03/17 12:56:52;;;;;;;1.70;0.85;;;26.70;21.10;;;;;;6219418;28;20668;-74
2023/03/17 13:00:14;;;;;;;2.88;0.90;;;26.60;21.20;;;;;;6219696;28;20113;-74
2023/03/17 13:03:25;;;;;;;5.63;1.00;;;26.60;21.10;;;;;;6220146;28;20030;-71
2023/03/17 13:06:30;;;;;;;6.68;1.25;;;26.70;21.00;;;;;;6218042;28;20041;-72
2023/03/17 13:09:31;;;;;;;1.73;0.90;;;26.50;21.30;;;;;;6218185;28;20096;-73
2023/03/17 13:12:42;;;;;;;2.75;1.02;;;26.10;21.90;;;;;;6218374;28;20045;-73
2023/03/17 13:15:49;;;;;;;4.53;1.05;;;25.70;21.80;;;;;;6219882;28;20062;-74
2023/03/17 13:18:52;;;;;;;4.27;1.00;;;25.20;22.10;;;;;;6221416;28;20124;-72
2023/03/17 13:21:59;;;;;;;2.00;1.10;;;24.80;22.20;;;;;;6226202;28;20236;-74
2023/03/17 13:25:30;;;;;;;1.60;0.87;;;24.60;22.70;;;;;;6234367;28;20053;-72
2023/03/17 13:28:39;;;;;;;5.28;1.15;;;24.60;22.90;;;;;;6202594;28;20037;-74
2023/03/17 13:31:39;;;;;;;;;;;24.90;22.80;;;;;;6221120;28;20038;-72
2023/03/17 13:34:54;;;;;;;3.33;1.27;;;24.90;22.70;;;;;;6217887;28;19925;-74
2023/03/17 13:38:35;;;;;;;2.88;1.10;;;25.00;22.70;;;;;;6219489;28;20524;-74
2023/03/17 13:42:26;;;;;;;3.15;0.93;;;25.00;23.20;;;;;;6218123;28;20029;-72
2023/03/17 13:45:38;;;;;;;7.30;1.15;;;24.90;22.90;;;;;;6127662;28;20206;-72
2023/03/17 13:53:07;;;;;;;2.22;1.20;;;24.70;23.20;;;;;;6144075;28;20501;-74
2023/03/17 13:56:45;;;;;;;3.80;1.05;;;24.60;23.30;;;;;;6143668;28;20503;-75
2023/03/17 14:04:17;;;;;;;0.98;0.73;;;24.50;23.50;;;;;;6072561;29;20138;-71
2023/03/17 14:07:23;;;;;;;1.95;1.10;;;24.50;23.40;;;;;;6071929;29;20088;-73
2023/03/17 14:10:27;;;;;;;11.80;0.82;;;24.50;23.50;;;;;;6073012;29;20198;-72
2023/03/17 14:13:56;;;;;;;5.70;1.00;;;24.50;23.50;;;;;;6072512;29;20040;-72
2023/03/17 14:17:09;;;;;;;2.92;0.77;;;24.50;23.50;;;;;;6145054;28;20097;-73
2023/03/17 14:20:37;;;;;;;3.05;0.77;;;24.50;23.50;;;;;;6167454;28;20047;-72
2023/03/17 14:28:46;;;;;;;1.48;0.75;;;24.40;23.50;;;;;;6166940;28;20050;-72
2023/03/17 14:41:03;;;;;;;4.35;1.10;;;24.20;23.40;;;;;;6218142;28;19917;-74
2023/03/17 14:44:08;;;;;;;3.92;0.98;;;24.00;23.90;;;;;;6192684;28;20455;-73
2023/03/17 14:47:22;;;;;;;1.98;1.10;;;23.80;24.10;;;;;;6192562;28;20113;-73
2023/03/17 14:50:29;;;;;;;2.67;0.90;;;23.70;24.30;;;;;;6176504;28;20389;-73
2023/03/17 14:53:37;;;;;;;5.72;1.17;;;23.60;24.50;;;;;;6192867;28;20039;-73
2023/03/17 14:57:07;;;;;;;7.20;1.23;;;23.50;24.60;;;;;;6194003;28;20084;-74
2023/03/17 15:00:30;;;;;;;3.95;0.70;;;23.40;24.50;;;;;;6119083;29;20418;-72
2023/03/17 15:03:37;;;;;;;2.95;0.80;;;23.40;24.60;;;;;;6087735;29;20047;-75
2023/03/17 15:07:02;;;;;;;2.28;0.80;;;23.50;24.50;;;;;;6119768;29;20122;-75
2023/03/17 15:10:20;;;;;;;2.17;0.75;;;23.40;24.80;;;;;;6141159;28;20045;-77
2023/03/17 15:13:24;;;;;;;6.05;0.65;;;23.20;25.00;;;;;;6151591;28;20483;-75
2023/03/17 15:16:32;;;;;;;1.92;0.65;;;23.10;25.20;;;;;;6151189;28;20057;-76
2023/03/17 15:19:46;;;;;;;2.75;0.73;;;23.00;25.40;;;;;;6152355;28;20109;-75
2023/03/17 15:22:54;;;;;;;1.35;0.60;;;22.90;25.50;;;;;;6154936;28;20129;-72
2023/03/17 15:25:56;;;;;;;8.05;1.08;;;22.90;25.60;;;;;;6171089;28;20090;-73
2023/03/17 15:37:31;;;;;;;1.67;0.70;;;22.60;26.00;;;;;;6196616;28;20258;-75
2023/03/17 15:40:33;;;;;;;4.03;1.00;;;22.40;26.20;;;;;;6224942;28;20400;-74
2023/03/17 16:09:34;;;;;;;2.15;0.82;;;21.60;27.60;;;;;;6225150;28;20030;-77
2023/03/17 16:29:52;;;;;;;4.68;1.20;;;21.10;28.50;;;;;;6199765;28;20123;-75
2023/03/17 16:32:59;;;;;;;1.33;0.75;;;21.00;28.80;;;;;;6192746;28;20038;-75
2023/03/17 16:36:00;;;;;;;1.83;0.82;;;20.90;28.90;;;;;;6200364;28;20210;-71
2023/03/17 16:39:02;;;;;;;1.88;0.80;;;20.90;29.00;;;;;;6195566;28;20154;-75
2023/03/17 16:42:03;;;;;;;2.25;0.93;;;20.80;29.10;;;;;;6205150;28;20067;-75
2023/03/17 16:45:12;;;;;;;1.77;0.88;;;20.70;29.20;;;;;;6197711;28;20091;-75
2023/03/17 16:48:32;;;;;;;1.45;0.80;;;20.70;29.40;;;;;;6179802;28;20069;-74
2023/03/17 16:51:38;;;;;;;1.45;0.90;;;20.60;29.50;;;;;;6183524;28;20030;-73
2023/03/17 16:54:42;;;;;;;3.65;1.10;;;20.50;29.50;;;;;;6197476;28;20080;-75
2023/03/17 16:58:24;;;;;;;5.85;0.85;;;20.50;29.60;;;;;;6192735;28;20117;-75
2023/03/17 17:01:28;;;;;;;1.20;0.70;;;20.40;29.80;;;;;;6194506;28;20494;-74
2023/03/17 17:04:33;;;;;;;1.67;0.75;;;20.40;29.90;;;;;;6208429;28;20030;-76
2023/03/17 17:07:35;;;;;;;1.38;0.80;;;20.30;30.00;;;;;;6202873;28;20173;-74
2023/03/17 17:10:37;;;;;;;3.00;0.90;;;20.30;30.00;;;;;;6218727;28;20443;-74
2023/03/17 17:13:43;;;;;;;4.82;0.90;;;20.20;30.00;;;;;;6202981;28;20042;-72
2023/03/17 17:16:45;;;;;;;6.15;1.20;;;20.20;30.30;;;;;;6220985;28;20038;-75
2023/03/17 17:19:46;;;;;;;1.95;0.82;;;20.10;30.50;;;;;;6220226;28;20038;-77
2023/03/17 17:22:48;;;;;;;2.33;1.20;;;20.10;31.40;;;;;;6202826;28;20029;-73
2023/03/17 17:25:50;;;;;;;8.25;1.02;;;20.00;31.10;;;;;;6202778;28;20379;-74
2023/03/17 17:28:51;;;;;;;2.72;0.95;;;20.00;30.90;;;;;;6219352;28;20358;-75
2023/03/17 17:31:52;;;;;;;3.50;0.73;;;20.00;31.00;;;;;;6218969;28;20037;-75
2023/03/17 17:34:53;;;;;;;1.67;0.82;;;19.90;31.00;;;;;;6218033;28;20030;-76
2023/03/17 17:37:55;;;;;;;5.68;0.80;;;19.90;31.00;;;;;;6219707;28;20052;-74
2023/03/17 17:40:57;;;;;;;4.60;1.10;;;19.90;31.00;;;;;;6218708;28;20402;-75
2023/03/17 17:43:59;;;;;;;0.93;0.70;;;19.80;31.30;;;;;;6218103;28;20030;-74
2023/03/17 17:47:00;;;;;;;1.77;1.27;;;19.80;31.10;;;;;;6217975;28;20026;-75